Date,TemperatureHighF,TemperatureAvgF,TemperatureLowF,DewpointHighF,DewpointAvgF,DewpointLowF,HumidityHigh,HumidityAvg,HumidityLow,PressureMaxIn,PressureMinIn,WindSpeedMaxMPH,WindSpeedAvgMPH,GustSpeedMaxMPH,PrecipitationSumIn
2013-1-1,14.1,8.2,0.6,10.0,2.9,-2.0,90,79,60,30.27,30.11,5,0,5,0.00
2013-1-2,21.0,16.0,12.3,15.0,12.7,10.0,94,86,76,30.14,30.06,8,0,9,0.00
2013-1-3,21.0,16.8,12.8,18.4,13.7,8.7,92,87,81,30.17,30.01,7,1,8,0.00
2013-1-4,31.6,19.2,10.9,22.6,14.7,8.5,96,83,67,30.21,29.98,6,0,6,0.03
2013-1-5,29.7,18.7,7.2,22.0,14.9,4.9,96,85,71,30.23,29.91,8,0,9,0.01
2013-1-6,26.5,22.2,12.8,23.3,18.9,10.9,100,87,75,30.25,29.91,6,0,7,0.00
2013-1-7,32.7,24.2,12.7,24.9,19.1,8.3,93,81,72,30.21,29.90,8,2,8,0.01
2013-1-8,39.7,27.9,13.2,29.5,22.7,11.2,96,82,53,30.12,29.81,13,2,13,0.03
2013-1-9,34.2,30.0,20.0,29.4,23.9,16.9,88,78,64,30.46,29.81,11,1,13,0.00
2013-1-10,40.2,28.9,17.1,31.7,20.1,13.2,96,73,34,30.50,29.92,13,2,18,0.06
2013-1-11,39.5,35.3,32.7,39.4,34.9,31.7,100,99,96,29.93,29.51,11,1,12,0.24
2013-1-12,42.9,28.5,14.8,42.2,25.1,9.7,100,87,79,30.02,29.45,8,2,10,0.00
2013-1-13,16.4,13.1,5.6,10.6,8.2,2.2,87,80,70,30.20,29.97,6,0,6,0.00
2013-1-14,14.4,7.9,2.9,8.0,3.6,0.0,95,82,73,30.45,30.20,6,0,6,0.00
2013-1-15,24.4,15.2,3.3,15.6,9.4,0.2,90,78,59,30.45,29.95,5,1,6,0.00
2013-1-16,26.0,20.9,12.6,23.4,16.4,4.9,94,83,70,30.15,29.65,7,2,8,0.00
2013-1-17,12.6,5.0,0.0,4.5,-1.4,-4.0,86,74,60,30.44,30.15,6,0,7,0.00
2013-1-18,20.5,11.7,-1.8,99.9,19.4,-3.1,100,90,85,30.44,29.84,8,1,11,0.00
2013-1-19,34.7,22.7,3.3,31.7,20.2,-0.9,97,90,76,29.92,29.57,12,1,13,0.09
2013-1-20,6.0,1.1,-6.1,99.9,40.0,-4.9,87,79,68,30.28,29.92,7,0,9,0.00
2013-1-21,-5.7,-10.6,-13.8,99.9,31.3,-99.9,85,74,59,30.33,30.18,9,1,12,0.00
2013-1-22,-0.9,-8.9,-17.8,99.9,16.0,-99.9,83,73,62,30.45,30.32,4,0,5,0.00
2013-1-23,7.5,-2.7,-14.7,99.9,54.1,-4.4,86,81,74,30.55,30.19,9,0,9,0.00
2013-1-24,6.9,5.8,-1.2,99.9,-0.4,-4.1,87,70,63,30.76,30.44,7,1,8,0.00
2013-1-25,15.1,9.8,5.0,12.0,7.2,2.3,100,88,83,30.44,30.00,7,0,10,0.00
2013-1-26,22.2,13.2,2.4,15.2,8.8,0.0,91,82,71,30.46,30.25,7,0,8,0.06
2013-1-27,28.9,23.3,17.6,26.2,18.7,11.9,97,83,64,30.37,29.94,9,2,11,0.00
2013-1-28,33.1,29.4,26.7,30.4,27.9,25.9,97,94,87,29.97,29.84,8,1,9,0.12
2013-1-29,35.0,31.6,29.2,35.0,31.0,27.8,100,97,95,29.84,29.53,13,1,13,0.13
2013-1-30,29.7,19.1,10.6,28.3,17.1,8.4,96,92,88,29.64,29.44,9,1,9,0.00
2013-1-31,12.3,8.3,5.3,8.9,5.4,2.4,92,87,79,29.85,29.56,6,0,6,0.00
2013-2-1,0.5,-3.2,-10.1,99.9,89.4,-6.2,84,78,73,30.29,30.22,4,0,5,0.00
2013-2-2,10.5,0.7,-11.7,99.9,46.7,-4.1,88,80,68,30.25,30.06,5,0,7,0.00
2013-2-3,10.6,2.8,-8.3,99.9,22.5,-3.8,88,81,65,30.11,29.98,8,0,8,0.00
2013-2-4,12.3,-1.5,-16.5,99.9,60.8,-4.5,86,77,57,30.15,29.97,4,0,6,0.00
2013-2-5,20.0,11.0,-2.0,99.9,12.6,-3.1,100,86,77,30.17,29.79,6,0,7,0.00
2013-2-6,20.6,11.3,-2.0,99.9,16.0,-3.0,100,88,77,30.28,30.15,7,0,7,0.00
2013-2-7,22.4,19.2,16.3,21.1,17.7,13.7,95,94,90,30.32,30.17,7,1,11,0.00
2013-2-8,23.8,12.6,3.3,14.9,8.4,0.9,91,84,65,30.47,30.32,7,0,7,0.01
2013-2-9,26.9,15.9,5.0,19.4,12.8,2.6,96,88,71,30.45,30.14,11,1,12,0.00
2013-2-10,32.1,25.9,20.3,31.8,25.2,19.4,99,97,95,30.14,29.36,22,3,23,0.00
2013-2-11,32.5,26.8,18.5,32.2,25.8,16.8,100,96,92,29.94,29.30,6,0,7,0.00
2013-2-12,20.7,17.8,12.9,18.8,15.8,11.4,96,91,86,30.02,29.83,3,0,4,0.00
2013-2-13,32.9,24.9,14.9,29.9,23.2,13.3,98,94,86,29.84,29.69,2,0,2,0.00
2013-2-14,28.9,23.2,11.8,28.1,20.8,8.7,97,90,83,30.07,29.67,9,0,9,0.00
2013-2-15,18.7,9.5,1.7,12.3,5.4,-1.2,93,83,67,30.27,30.07,6,0,6,0.00
2013-2-16,12.7,3.2,-7.5,99.9,46.2,-3.1,89,82,66,30.27,30.21,5,0,5,0.00
2013-2-17,19.7,4.7,-17.3,99.9,42.6,-48.3,96,71,55,30.28,30.01,10,1,11,0.00
2013-2-18,34.4,26.2,16.4,29.1,21.8,9.3,97,84,73,30.01,29.51,11,2,13,0.01
2013-2-19,25.4,11.3,1.9,24.0,7.7,-1.0,95,85,74,30.20,29.51,10,1,12,0.00
2013-2-20,17.5,9.5,1.9,9.4,5.0,-0.5,97,81,69,30.54,30.20,11,1,11,0.00
2013-2-21,25.6,14.6,1.0,17.4,10.4,-1.8,94,83,67,30.59,30.28,14,2,16,0.00
2013-2-22,23.1,20.1,16.6,21.3,18.5,15.2,95,93,91,30.29,29.86,18,2,18,0.00
2013-2-23,29.2,21.6,12.1,26.1,19.8,10.3,95,92,85,29.95,29.83,4,0,4,0.00
2013-2-24,33.7,25.1,18.2,26.0,21.3,16.5,95,86,69,30.17,29.95,6,0,8,0.02
2013-2-25,31.9,27.1,22.1,27.3,24.0,19.9,93,88,78,30.20,30.13,5,0,6,0.01
2013-2-26,31.7,26.6,16.5,27.4,23.4,14.7,97,88,77,30.16,29.92,18,2,18,0.00
2013-2-27,29.8,27.8,26.1,27.0,25.1,23.6,94,89,85,29.95,29.83,9,2,12,0.00
2013-2-28,27.7,23.2,18.6,24.9,19.4,14.4,94,85,72,30.28,29.95,11,1,15,0.00
2013-3-1,26.0,18.5,6.9,15.5,11.9,3.8,87,76,56,30.40,30.27,10,1,12,0.00
2013-3-2,26.1,13.7,1.5,12.1,6.4,-1.1,92,74,47,30.38,30.27,7,0,8,0.03
2013-3-3,28.0,12.4,-7.6,99.9,29.8,-5.3,87,66,42,30.28,30.16,7,0,8,0.03
2013-3-4,31.1,18.8,-0.2,99.9,10.8,-3.7,100,66,40,30.25,30.16,14,2,14,0.00
2013-3-5,28.5,22.7,19.7,21.0,16.3,9.4,94,77,55,30.26,30.10,12,2,13,0.00
2013-3-6,28.6,22.5,9.9,22.2,18.3,7.3,95,84,68,30.40,30.26,5,0,6,0.02
2013-3-7,28.1,17.6,5.0,19.5,12.6,2.1,100,81,67,30.51,30.39,6,0,6,0.00
2013-3-8,36.6,24.9,7.1,24.5,18.2,4.5,94,76,57,30.53,30.31,9,1,10,0.03
2013-3-9,32.7,30.2,26.1,32.1,27.6,22.2,98,90,78,30.31,29.83,12,3,13,0.00
2013-3-10,33.3,31.0,26.4,32.5,30.2,25.4,99,97,93,29.96,29.80,10,1,14,0.02
2013-3-11,27.4,24.8,18.3,26.1,23.4,16.4,98,94,90,29.85,29.65,5,0,8,0.00
2013-3-12,25.2,19.3,16.0,20.5,16.5,13.6,94,89,79,30.07,29.74,5,0,9,0.00
2013-3-13,29.2,19.3,9.3,15.6,11.4,5.7,92,73,45,30.33,30.07,6,1,6,0.15
2013-3-14,36.2,19.2,-3.0,99.9,23.7,-3.5,89,76,51,30.33,30.05,5,0,6,0.17
2013-3-15,31.7,26.3,14.1,27.0,20.5,11.0,92,79,59,30.05,29.94,8,1,11,0.02
2013-3-16,23.6,16.1,8.1,13.4,10.0,5.4,89,77,60,30.22,30.00,7,0,8,0.02
2013-3-17,23.0,12.2,-6.2,99.9,20.2,-5.1,87,66,38,30.38,30.16,13,2,13,0.01
2013-3-18,26.6,20.8,13.4,24.9,18.4,9.2,99,91,80,30.16,29.56,14,2,15,0.00
2013-3-19,24.5,17.7,12.3,16.6,11.4,6.1,91,77,56,29.99,29.56,9,1,11,0.00
2013-3-20,18.9,12.6,2.0,11.7,6.1,-1.4,92,75,59,30.12,29.98,7,1,9,0.00
2013-3-21,26.0,17.3,8.9,16.5,12.0,6.1,91,80,64,30.10,30.06,5,0,7,0.00
2013-3-22,30.7,18.6,-1.4,99.9,17.6,-3.3,91,82,69,30.17,30.09,6,0,7,0.00
2013-3-23,31.6,25.5,20.3,23.3,20.4,17.3,91,81,68,30.24,30.16,7,0,7,0.00
2013-3-24,30.1,25.4,17.7,24.0,20.5,15.0,90,82,74,30.18,29.98,8,1,12,0.00
2013-3-25,33.4,25.5,16.4,24.8,21.1,14.4,95,84,65,30.22,30.00,8,1,9,0.00
2013-3-26,35.9,28.9,22.2,27.3,23.2,19.0,93,80,56,30.30,30.21,6,0,8,0.03
2013-3-27,40.1,30.0,19.8,24.1,20.7,16.8,90,70,46,30.35,30.30,6,0,9,0.00
2013-3-28,43.4,29.1,12.6,23.2,17.5,10.5,92,66,36,30.40,30.31,7,0,9,0.00
2013-3-29,46.2,32.3,15.3,26.4,19.6,13.2,92,63,33,30.38,30.21,5,0,5,0.00
2013-3-30,35.8,33.3,28.1,35.5,29.9,19.8,100,88,64,30.21,29.81,6,0,7,0.59
2013-3-31,36.9,30.4,19.8,33.7,26.0,13.3,100,85,49,29.95,29.67,12,1,16,0.06
2013-4-1,28.3,21.3,16.6,17.3,11.7,6.4,90,68,43,30.18,29.95,10,1,12,0.01
2013-4-2,33.4,22.7,12.3,17.2,10.4,5.6,86,61,35,30.37,30.18,12,1,12,0.00
2013-4-3,37.5,24.6,5.8,17.0,10.5,2.6,89,58,28,30.52,30.19,6,1,7,0.00
2013-4-4,46.8,36.7,27.2,31.5,23.7,16.9,77,60,37,30.19,29.98,7,1,8,0.00
2013-4-5,37.3,30.1,18.8,21.4,17.8,11.7,98,62,38,30.30,30.13,6,0,7,0.00
2013-4-6,41.5,34.3,27.8,35.3,30.9,20.4,98,88,61,30.18,29.57,13,2,16,0.42
2013-4-7,37.5,33.3,29.7,32.3,29.8,28.3,98,88,74,29.99,29.59,8,0,8,0.04
2013-4-8,36.2,33.4,31.7,35.6,32.5,28.8,99,96,88,30.09,29.84,8,1,11,0.43
2013-4-9,35.4,33.0,27.4,34.6,30.2,20.8,100,90,68,30.23,30.07,10,1,12,0.00
2013-4-10,40.2,32.8,26.9,24.2,20.6,11.8,85,63,41,30.25,30.11,12,2,17,0.00
2013-4-11,33.3,29.3,24.7,24.7,20.6,9.8,94,71,38,30.13,29.78,22,4,28,0.00
2013-4-12,32.0,27.1,24.2,28.5,24.8,22.7,95,91,80,29.81,29.71,17,2,18,0.17
2013-4-13,33.6,27.3,17.8,28.4,23.9,15.4,95,87,73,30.03,29.77,7,0,9,0.15
2013-4-14,36.0,25.9,12.2,30.4,22.3,10.0,96,87,62,30.11,29.77,19,3,22,0.04
2013-4-15,42.2,35.5,31.5,36.8,30.6,26.6,100,83,56,29.91,29.65,11,2,14,0.80
2013-4-16,42.2,35.8,29.0,30.5,27.9,24.8,87,74,53,30.41,29.90,6,0,9,0.00
2013-4-17,40.1,33.6,25.9,31.9,27.5,23.5,93,79,63,30.44,30.05,13,2,14,0.00
2013-4-18,35.4,33.2,31.7,34.6,32.6,31.1,99,97,92,30.05,29.29,10,-3,13,0.67
2013-4-19,32.2,26.5,19.8,31.9,24.3,16.8,99,92,76,29.92,29.15,10,1,12,0.16
2013-4-20,31.4,23.6,12.5,18.7,15.6,10.7,94,73,51,30.47,29.92,8,0,8,0.04
2013-4-21,36.5,29.8,20.2,30.6,23.4,14.0,92,77,68,30.52,30.24,14,3,17,0.04
2013-4-22,39.2,36.3,32.8,38.9,35.6,30.6,100,97,92,30.25,30.09,9,-14,9,0.46
2013-4-23,35.7,31.9,25.3,33.2,29.5,23.3,100,91,76,30.10,29.93,10,1,10,0.36
2013-4-24,44.2,33.2,19.1,31.5,23.6,17.9,97,71,44,30.05,29.93,7,0,7,0.00
2013-4-25,42.9,36.3,30.0,34.1,28.5,22.2,97,76,46,30.26,29.92,6,0,7,0.13
2013-4-26,57.6,42.6,28.8,40.1,34.0,25.5,93,73,52,30.26,30.10,12,1,14,0.05
2013-4-27,65.2,48.2,30.9,48.0,39.0,29.3,100,73,46,30.19,30.00,5,0,7,0.00
2013-4-28,61.4,50.9,39.0,44.8,41.1,37.9,99,72,48,30.00,29.75,9,0,11,0.00
2013-4-29,65.8,53.1,41.6,54.6,48.6,39.9,100,87,58,29.82,29.70,9,0,12,0.21
2013-4-30,74.2,60.5,47.4,57.5,51.6,39.6,100,76,45,29.92,29.54,13,1,13,0.20
2013-5-1,49.7,43.5,33.4,46.4,40.5,30.5,100,90,72,30.42,29.87,6,0,7,0.66
2013-5-2,33.6,31.1,28.5,31.6,29.4,26.6,96,93,90,30.51,30.40,7,1,9,0.04
2013-5-3,33.3,30.7,28.1,32.4,29.7,26.1,99,96,92,30.40,30.22,7,1,8,0.22
2013-5-4,66.5,47.1,32.7,51.3,41.6,32.3,100,84,56,30.23,30.11,8,0,10,0.10
2013-5-5,69.2,51.6,35.5,46.3,38.8,30.7,95,67,27,30.18,30.05,7,0,8,0.00
2013-5-6,72.3,55.8,33.1,44.8,38.1,30.4,95,59,22,30.13,30.00,5,0,5,0.00
2013-5-7,74.8,58.8,39.3,46.6,39.0,32.2,91,54,22,30.10,29.96,6,0,7,0.00
2013-5-8,76.6,61.6,44.2,50.5,41.8,36.9,87,53,25,30.03,29.94,6,0,7,0.00
2013-5-9,58.9,47.3,33.7,47.0,40.8,32.9,98,80,61,30.13,29.94,9,1,10,0.45
2013-5-10,56.7,43.0,30.6,33.6,30.6,24.5,97,67,31,30.13,29.93,9,1,11,0.00
2013-5-11,43.2,37.4,31.9,41.1,32.4,25.4,96,83,57,30.03,29.81,11,1,12,0.09
2013-5-12,42.2,34.3,29.4,29.2,24.1,18.1,93,68,39,30.18,30.02,8,1,11,0.03
2013-5-13,53.7,42.5,25.8,35.2,26.1,20.5,86,55,30,30.21,29.85,11,1,12,0.00
2013-5-14,73.5,56.5,40.8,50.6,42.4,34.1,82,61,37,29.85,29.46,10,2,12,0.00
2013-5-15,72.9,63.3,53.2,50.1,41.8,33.9,86,49,26,29.79,29.50,11,1,11,0.00
2013-5-16,71.3,61.1,49.0,44.0,36.7,27.3,78,43,22,30.04,29.78,7,1,9,0.00
2013-5-17,66.6,55.0,45.0,51.3,42.7,32.9,86,65,37,30.14,30.03,9,2,9,0.00
2013-5-18,69.2,57.9,48.2,59.5,52.3,45.8,97,83,65,30.12,29.92,15,2,15,0.14
2013-5-19,78.7,68.5,58.5,63.1,59.8,55.2,94,76,52,29.93,29.70,13,2,13,0.00
2013-5-20,75.8,67.0,59.0,61.0,58.0,54.6,93,74,49,29.72,29.54,18,2,18,0.01
2013-5-21,66.2,59.2,52.7,62.4,57.8,52.3,100,96,76,29.69,29.53,11,1,12,0.73
2013-5-22,52.5,48.8,43.2,52.2,48.1,42.4,100,98,93,29.97,29.67,7,0,8,0.05
2013-5-23,49.9,41.9,35.1,42.3,34.3,30.6,97,76,54,30.39,29.97,11,-3,11,0.00
2013-5-24,60.5,47.0,30.5,40.0,33.4,28.5,96,63,32,30.50,30.32,5,0,6,0.00
2013-5-25,63.9,53.7,40.2,44.2,39.1,35.5,91,60,37,30.43,30.28,9,1,9,0.00
2013-5-26,64.7,53.6,38.0,39.4,35.4,28.8,91,54,28,30.37,30.19,11,2,12,0.00
2013-5-27,65.8,55.7,42.2,43.1,38.2,31.3,77,54,34,30.22,29.94,18,3,18,0.00
2013-5-28,55.2,52.5,50.2,52.4,48.3,41.6,99,87,62,29.93,29.75,9,1,9,0.18
2013-5-29,72.5,60.6,52.2,64.6,57.7,51.8,100,91,67,29.89,29.78,8,0,8,0.42
2013-5-30,78.7,66.9,60.6,67.2,63.6,60.2,100,90,61,29.81,29.64,12,2,15,0.22
2013-5-31,74.5,64.8,53.8,64.3,58.7,52.8,99,82,54,29.68,29.58,13,2,13,0.47
2013-6-1,67.1,55.2,41.0,59.5,53.0,39.1,100,93,70,29.79,29.58,9,0,9,0.23
2013-6-2,54.5,45.0,37.4,41.4,37.8,34.1,96,78,48,30.06,29.79,8,1,8,0.01
2013-6-3,64.8,51.3,36.3,44.8,38.2,33.7,99,65,35,30.15,30.04,8,0,11,0.00
2013-6-4,58.2,49.9,40.7,46.7,40.4,32.2,89,71,45,30.23,30.14,8,1,9,0.00
2013-6-5,51.4,47.3,42.7,49.8,46.0,41.1,98,96,87,30.21,30.07,10,1,14,0.36
2013-6-6,52.7,48.6,45.6,50.7,46.2,40.1,99,92,65,30.08,30.04,7,-3,8,0.25
2013-6-7,62.9,52.1,42.8,52.0,47.0,41.1,96,84,58,30.08,29.96,2,0,2,0.00
2013-6-8,65.0,56.5,49.8,53.2,50.7,46.5,99,82,53,30.02,29.95,7,0,7,0.08
2013-6-9,66.2,57.3,47.1,56.2,51.6,45.0,97,82,66,30.05,29.91,18,2,21,0.01
2013-6-10,75.5,65.0,54.3,63.2,58.4,52.6,95,80,57,29.91,29.76,7,0,9,0.00
2013-6-11,76.6,65.7,55.4,61.8,57.2,49.5,100,76,51,29.87,29.77,4,0,6,0.00
2013-6-12,79.3,64.5,49.5,60.6,54.8,47.2,98,74,39,29.91,29.74,5,0,5,0.00
2013-6-13,69.6,60.2,51.7,56.6,52.0,48.6,93,76,53,30.11,29.81,9,1,10,0.00
2013-6-14,73.9,62.2,45.4,55.9,48.3,41.7,100,65,34,30.17,29.96,7,0,8,0.00
2013-6-15,64.5,61.4,56.8,64.1,59.2,53.9,100,93,73,29.98,29.76,7,0,11,0.32
2013-6-16,76.7,64.1,54.7,62.1,56.4,48.5,100,80,39,29.90,29.79,9,0,13,0.12
2013-6-17,65.5,58.0,46.5,58.6,54.1,39.2,100,88,70,30.06,29.83,9,1,9,0.03
2013-6-18,67.8,56.6,39.9,48.8,42.3,37.4,94,62,36,30.16,30.06,7,1,12,0.01
2013-6-19,71.0,62.9,47.7,58.8,49.9,43.1,89,64,44,30.14,30.01,5,0,6,0.00
2013-6-20,78.0,65.9,59.1,65.5,59.9,53.8,99,82,54,30.10,30.01,6,0,6,0.08
2013-6-21,68.2,64.0,60.3,66.7,62.6,59.5,99,96,90,30.06,29.76,13,1,18,0.02
2013-6-22,71.7,64.0,58.5,65.8,61.8,57.9,100,93,80,30.07,29.88,26,1,26,0.02
2013-6-23,78.4,71.1,63.1,69.8,66.0,62.5,99,85,68,29.91,29.75,12,1,12,0.01
2013-6-24,80.2,72.9,64.0,69.6,65.8,62.0,98,80,56,29.90,29.76,4,0,5,0.01
2013-6-25,84.7,74.8,65.8,69.8,66.5,61.9,98,77,48,29.81,29.72,3,0,4,0.00
2013-6-26,80.7,73.1,66.0,72.2,68.9,64.4,100,88,70,29.73,29.63,8,1,12,0.00
2013-7-3,76.4,70.7,66.1,61.7,57.8,46.6,83,66,36,30.02,29.98,6,1,8,0.00
2013-7-4,78.0,70.3,60.5,64.2,60.2,55.8,93,72,47,30.00,29.91,4,0,4,0.00
2013-7-5,79.9,72.8,62.2,63.3,60.4,56.7,88,67,47,29.97,29.87,6,1,8,0.00
2013-7-6,83.4,74.6,67.2,66.6,63.8,60.7,86,70,47,29.92,29.85,5,0,5,0.00
2013-7-7,81.9,73.7,66.9,72.3,68.1,64.7,100,84,63,29.92,29.82,7,0,9,0.11
2013-7-8,81.1,71.4,64.5,71.3,68.2,64.3,100,91,68,29.94,29.82,6,0,6,0.27
2013-7-9,76.3,70.6,65.3,71.4,68.8,64.4,100,94,77,29.95,29.67,7,1,9,0.39
2013-7-10,69.8,64.0,58.0,65.8,56.5,51.8,99,78,56,29.99,29.72,8,1,11,0.00
2013-7-11,77.8,68.4,54.8,61.2,55.9,49.5,98,68,38,30.11,29.99,5,0,6,0.00
2013-7-12,77.8,71.0,61.9,63.5,60.1,55.4,85,69,53,30.09,29.98,10,1,10,0.00
2013-7-13,79.7,72.3,65.2,64.5,61.3,57.3,81,69,54,30.11,30.00,6,1,8,0.00
2013-7-14,80.9,73.5,63.4,68.0,63.5,59.1,89,72,52,30.19,30.11,6,0,7,0.00
2013-7-15,84.6,76.4,66.5,72.0,67.9,64.0,95,77,54,30.25,30.16,5,0,7,0.00
2013-7-16,87.3,80.1,72.5,73.8,71.8,69.9,96,77,58,30.19,30.08,5,0,5,0.00
2013-7-17,88.1,79.6,72.0,72.4,70.2,67.4,93,75,52,30.17,30.05,4,0,5,0.01
2013-7-18,86.5,79.5,69.7,74.2,71.0,69.0,100,77,58,30.05,29.66,5,1,6,0.10
2013-7-19,84.5,75.6,64.8,72.1,66.1,56.4,94,73,58,29.75,29.57,8,1,8,0.04
2013-7-20,71.4,63.7,54.3,60.0,52.0,46.2,92,68,42,30.00,29.74,7,0,8,0.00
2013-7-21,66.8,58.9,51.5,59.2,53.0,46.6,92,81,65,30.03,29.90,11,1,11,0.00
2013-7-22,78.8,66.4,57.3,70.2,61.3,55.6,99,85,68,29.91,29.57,7,1,9,0.00
2013-7-23,64.7,58.1,50.3,55.3,49.4,46.1,91,74,54,30.01,29.71,7,0,10,0.00
2013-7-24,68.8,59.3,47.3,57.6,52.3,45.3,100,79,55,30.09,30.00,4,0,5,0.00
2013-7-25,74.9,65.5,57.3,64.1,58.9,53.2,97,80,62,30.01,29.85,6,0,7,0.47
2013-7-26,65.3,57.5,45.7,62.6,56.4,44.3,100,97,85,29.96,29.78,6,0,8,0.41
2013-7-27,54.0,48.9,43.2,49.8,46.6,41.8,98,92,82,29.94,29.85,5,0,6,0.02
2013-7-28,53.9,50.0,45.6,51.9,48.8,44.7,99,96,90,30.03,29.85,7,0,7,0.01
2013-7-29,72.7,60.3,46.7,57.2,52.3,45.8,99,77,50,30.15,30.03,5,0,7,0.00
2013-7-30,66.9,61.4,55.2,62.4,58.7,53.7,99,91,75,30.16,30.05,5,0,5,0.03
2013-7-31,72.8,65.2,57.2,64.2,60.2,53.6,99,85,62,30.05,29.88,8,0,8,0.00
2013-8-1,73.2,63.2,52.6,57.0,53.6,50.6,95,73,47,29.93,29.83,6,0,8,0.00
2013-8-2,72.7,62.3,53.9,59.2,53.9,49.3,99,76,48,29.97,29.79,6,0,8,0.08
2013-8-3,71.1,60.0,49.3,55.3,51.2,47.9,98,75,48,30.17,29.97,7,0,11,0.00
2013-8-4,69.0,58.2,46.5,52.3,48.5,43.4,99,73,44,30.25,30.08,7,0,8,0.00
2013-8-5,64.5,59.7,54.9,63.2,57.9,51.1,99,94,81,30.08,29.82,7,0,7,0.38
2013-8-6,71.6,65.0,59.8,63.7,61.1,58.8,100,88,67,29.84,29.69,7,0,8,0.58
2013-8-7,68.7,61.0,52.8,61.4,56.0,46.8,100,85,52,30.01,29.66,6,0,7,0.02
2013-8-8,70.4,59.7,47.1,58.9,53.4,46.1,99,82,54,30.05,29.96,1,0,4,0.00
2013-8-9,69.4,61.8,53.6,58.8,53.5,48.3,99,76,48,30.06,29.92,7,0,8,0.04
2013-8-10,69.1,59.5,49.3,57.1,53.1,48.5,99,81,59,30.14,30.06,4,0,4,0.00
2013-8-11,72.1,61.9,50.4,58.6,54.4,49.2,99,79,53,30.11,29.99,4,0,4,0.00
2013-8-12,73.7,61.3,47.8,62.7,54.9,45.6,100,81,52,30.05,29.91,6,0,9,0.02
2013-8-13,61.9,53.0,43.6,52.7,46.2,42.3,98,80,54,30.20,30.04,8,0,9,0.00
2013-8-14,65.5,54.4,42.1,51.7,46.4,40.4,98,77,52,30.25,30.12,6,0,6,0.00
2013-8-15,73.7,60.9,48.1,55.6,51.3,45.5,98,74,46,30.13,30.05,6,0,7,0.00
2013-8-16,77.5,63.8,49.5,60.3,53.8,48.1,98,74,38,30.17,30.11,5,0,6,0.00
2013-8-17,77.0,67.0,54.1,61.3,56.7,52.8,98,72,46,30.21,30.10,4,0,4,0.00
2013-8-18,76.2,67.8,55.9,60.6,57.3,54.1,95,71,50,30.16,30.00,4,0,5,0.00
2013-8-19,76.5,69.2,60.5,66.4,62.0,56.6,89,79,68,30.02,29.90,4,0,4,0.00
2013-8-20,80.9,72.6,65.1,69.5,66.2,62.6,93,81,66,29.96,29.87,5,1,5,0.00
2013-8-21,83.9,72.8,61.7,74.2,68.1,61.3,99,86,68,29.97,29.78,7,0,13,0.14
2013-8-22,78.0,66.5,57.6,63.1,55.8,46.8,100,72,36,30.15,29.96,7,0,7,0.00
2013-8-23,75.1,65.0,50.9,61.8,55.5,48.9,95,73,52,30.20,30.09,7,1,9,0.00
2013-8-24,77.6,70.2,61.8,67.5,60.6,56.5,91,73,57,30.19,30.01,9,2,11,0.00
2013-8-25,87.9,79.4,71.4,73.6,70.9,66.7,89,76,60,30.03,29.89,6,1,9,0.00
2013-8-26,82.3,74.3,66.1,75.0,70.7,65.4,99,89,74,29.97,29.85,9,0,12,1.36
2013-8-27,77.7,72.1,67.9,74.9,70.9,67.5,100,97,86,29.91,29.78,7,0,8,0.64
2013-8-28,83.4,72.5,63.7,69.4,66.2,61.4,100,83,50,30.01,29.86,6,0,7,0.00
2013-8-29,80.2,71.4,66.4,71.1,67.9,63.2,100,90,65,30.04,29.80,15,1,16,0.45
2013-8-30,75.3,69.1,59.6,70.7,64.9,58.2,99,87,69,29.90,29.75,8,1,12,0.01
2013-8-31,78.8,67.5,55.4,67.8,61.8,54.8,100,84,56,29.90,29.74,4,0,5,0.00
2013-9-1,71.1,66.1,57.2,65.8,62.5,55.1,99,89,73,29.84,29.66,6,0,7,0.16
2013-9-2,59.2,53.4,47.9,55.1,50.0,46.9,98,89,77,30.04,29.84,6,0,9,0.00
2013-9-3,69.7,58.5,46.0,56.5,51.6,45.4,100,80,51,30.09,29.95,6,0,6,0.01
2013-9-4,69.8,59.6,48.9,58.1,53.7,46.3,96,82,54,30.19,29.96,6,0,6,0.00
2013-9-5,69.3,57.8,44.3,56.6,49.3,43.4,98,76,47,30.32,30.19,7,0,7,0.00
2013-9-6,77.7,65.9,54.1,69.2,61.2,50.4,94,85,71,30.20,29.89,6,0,6,0.00
2013-9-7,84.1,70.4,54.8,71.8,64.6,50.8,97,83,60,30.07,29.85,6,0,9,0.00
2013-9-8,68.9,59.6,49.8,55.4,51.3,47.8,96,76,52,30.14,29.98,11,1,12,0.01
2013-9-9,74.5,64.9,57.5,71.9,63.5,54.4,100,96,88,29.98,29.67,6,1,9,0.10
2013-9-10,78.9,69.9,62.8,70.0,67.0,61.1,100,92,63,29.88,29.68,4,0,6,0.06
2013-9-11,76.1,65.6,56.3,64.4,60.3,53.5,100,84,61,29.97,29.88,6,0,6,0.00
2013-9-12,61.6,55.3,46.9,55.5,49.9,44.4,98,83,61,30.19,29.95,8,0,8,0.00
2013-9-13,60.0,49.9,38.2,47.4,43.0,37.4,98,79,47,30.27,30.13,7,0,8,0.00
2013-9-14,65.4,56.2,45.4,54.2,48.4,42.6,97,76,55,30.14,29.96,4,0,5,0.02
2013-9-15,55.9,50.7,37.3,55.4,49.4,36.5,100,96,89,30.33,29.96,8,0,9,0.11
2013-9-16,59.9,47.3,34.4,46.3,40.3,34.1,100,79,48,30.48,30.32,7,0,8,0.01
2013-9-17,62.3,53.6,43.3,53.1,47.4,40.8,95,81,59,30.37,30.08,9,2,10,0.00
2013-9-18,64.1,60.3,55.0,63.5,59.6,53.3,100,98,93,30.08,29.84,7,1,8,0.01
2013-9-19,74.4,66.8,63.2,69.4,65.6,62.6,100,96,83,29.85,29.64,8,1,12,0.41
2013-9-20,67.7,59.8,48.6,63.7,57.9,47.6,100,94,69,29.78,29.62,5,0,6,0.16
2013-9-21,49.4,45.4,36.9,48.4,42.7,36.3,98,91,75,30.02,29.78,8,0,8,0.06
2013-9-22,55.8,47.3,36.0,46.0,41.4,35.3,99,82,61,30.14,30.02,7,1,9,0.00
2013-9-23,61.9,51.3,41.4,51.6,46.3,39.9,96,84,67,30.15,30.06,8,2,9,0.00
2013-9-24,67.7,54.8,42.0,55.7,50.1,41.1,100,86,62,30.11,29.99,6,0,6,0.00
2013-9-25,69.1,55.5,42.6,56.1,49.7,42.1,100,83,53,30.05,29.97,5,0,5,0.00
2013-9-26,68.0,56.3,42.7,56.6,50.4,42.1,100,83,54,30.09,30.02,9,1,9,0.00
2013-9-27,72.7,63.4,53.6,57.3,53.3,48.8,94,71,54,30.11,29.97,10,2,12,0.00
2013-9-28,71.2,61.1,51.0,61.5,53.9,48.3,98,78,65,30.01,29.68,16,-1,18,0.21
2013-9-29,65.0,55.4,45.6,50.5,47.7,43.9,99,78,48,30.00,29.85,4,0,4,0.01
2013-9-30,66.9,59.1,52.4,51.3,48.6,45.8,84,69,48,29.93,29.71,10,2,13,0.00
2013-10-1,74.3,63.0,53.2,57.7,48.7,36.9,89,62,31,29.91,29.66,6,0,8,0.00
2013-10-2,69.3,57.3,45.6,47.6,41.9,37.1,83,59,33,30.07,29.90,5,0,7,0.00
2013-10-3,60.8,53.7,46.1,53.7,49.6,44.5,98,87,69,30.04,29.91,14,1,14,0.62
2013-10-4,56.0,52.0,50.3,52.6,50.8,49.7,99,96,87,30.11,29.96,12,1,12,0.12
2013-10-5,53.5,51.3,50.1,53.4,51.1,49.6,100,99,96,30.10,29.72,16,3,19,0.38
2013-10-6,55.4,52.0,46.2,54.8,50.0,45.3,100,94,71,29.73,29.64,9,0,11,0.06
2013-10-7,57.3,47.9,40.8,46.3,42.2,37.0,98,83,52,30.06,29.68,11,0,11,0.01
2013-10-8,67.7,56.0,41.1,49.9,45.2,39.3,95,69,45,30.12,29.99,9,2,10,0.00
2013-10-9,67.6,60.9,54.2,52.9,50.2,47.4,82,69,52,30.12,30.03,4,1,6,0.00
2013-10-10,68.5,57.2,44.8,52.0,47.2,43.6,97,72,43,30.14,30.04,8,0,9,0.00
2013-10-11,67.8,56.9,45.8,57.4,51.0,44.4,97,82,60,30.07,29.89,14,3,16,0.00
2013-10-12,63.8,57.8,47.9,57.6,49.1,40.8,87,73,53,30.03,29.79,13,2,13,0.00
2013-10-13,52.2,46.2,36.8,44.3,39.7,33.8,92,79,56,30.44,30.03,5,0,7,0.00
2013-10-14,54.1,44.0,32.1,42.8,36.1,30.8,97,76,50,30.49,30.23,7,1,10,0.00
2013-10-15,50.9,48.2,44.3,50.8,47.1,41.3,100,96,87,30.23,29.70,13,2,16,0.48
2013-10-16,48.5,42.1,36.2,48.1,41.3,35.3,99,97,92,29.92,29.70,6,0,7,0.09
2013-10-17,51.8,41.2,33.0,42.2,37.7,32.5,100,89,62,29.92,29.78,5,0,5,0.01
2013-10-18,42.6,39.4,33.3,42.3,38.7,32.8,99,97,93,29.92,29.78,5,0,6,0.22
2013-10-19,44.2,37.2,31.2,38.5,34.8,30.7,100,92,70,29.88,29.69,4,0,5,0.06
2013-10-20,40.8,34.7,32.6,36.3,33.4,32.0,99,95,76,29.84,29.70,8,0,8,0.18
2013-10-21,33.9,31.7,29.0,33.5,29.3,23.6,99,91,75,29.85,29.71,7,1,8,0.10
2013-10-22,37.4,32.9,29.9,32.8,30.3,27.8,97,90,71,30.01,29.78,6,0,7,0.05
2013-10-23,34.7,31.4,29.4,31.3,28.1,25.4,95,87,78,30.02,29.95,6,0,8,0.05
2013-10-24,35.0,31.4,28.5,33.4,29.8,27.2,96,94,88,30.28,30.02,5,0,6,0.09
2013-10-25,45.9,35.8,28.4,39.0,30.5,26.8,97,82,65,30.31,29.67,7,1,8,0.02
2013-10-26,46.5,37.6,33.6,39.2,33.2,28.9,97,85,70,30.05,29.67,8,1,11,0.09
2013-10-27,47.4,38.2,33.0,34.1,31.8,28.6,91,79,56,30.20,29.83,11,1,11,0.00
2013-10-28,36.2,30.3,25.4,29.3,22.3,18.9,92,73,52,30.54,30.20,12,1,14,0.00
2013-10-29,34.2,29.7,23.4,33.4,26.2,19.8,97,87,67,30.54,30.24,7,1,8,0.03
2013-10-30,47.0,40.3,33.3,46.9,40.0,32.5,100,99,97,30.24,29.78,8,1,9,0.17
2013-10-31,50.5,48.0,43.6,50.4,47.9,43.4,100,100,100,29.78,29.20,4,0,5,0.16
2013-11-1,43.5,39.7,36.4,43.3,39.1,36.1,100,98,92,29.77,29.21,5,-3,7,0.02
2013-11-2,38.8,35.0,31.4,36.2,34.2,31.1,100,97,88,30.20,29.77,5,0,5,0.00
2013-11-3,40.9,36.1,30.6,36.8,33.4,29.8,99,91,77,30.32,30.20,16,3,16,0.00
2013-11-4,45.7,42.5,39.8,42.4,39.2,36.5,98,89,77,30.22,29.98,15,4,18,0.06
2013-11-5,44.6,38.8,32.5,38.9,34.8,31.9,98,86,66,30.28,29.98,5,0,6,0.12
2013-11-6,33.6,31.0,27.4,33.1,29.7,24.3,99,95,86,30.13,29.87,7,0,9,0.13
2013-11-7,31.6,28.8,25.8,27.7,25.4,23.5,93,87,79,30.21,30.13,6,0,9,0.01
2013-11-8,34.9,29.3,22.4,31.9,26.2,21.3,97,88,78,30.28,29.89,12,2,14,0.01
2013-11-9,36.7,34.9,33.3,36.4,33.3,30.5,100,94,86,29.99,29.66,12,1,12,0.34
2013-11-10,35.8,34.1,32.3,32.7,29.9,27.8,96,85,76,30.29,29.99,8,1,12,0.00
2013-11-11,32.3,23.3,19.3,31.5,19.0,12.8,97,84,63,30.62,30.06,10,1,11,0.00
2013-11-12,25.4,20.2,13.9,16.7,12.3,7.2,91,72,46,30.73,30.50,5,1,8,0.00
2013-11-13,42.7,31.1,18.8,31.3,23.6,11.2,84,74,62,30.50,29.91,7,2,8,0.02
2013-11-14,36.4,33.9,32.2,31.2,29.4,27.5,92,84,79,29.92,29.81,3,0,3,0.00
2013-11-15,46.5,36.7,27.9,38.8,33.4,27.0,98,88,74,29.92,29.84,4,0,5,0.01
2013-11-16,49.9,41.0,36.6,49.8,39.1,33.3,100,93,83,29.84,29.36,13,2,15,0.51
2013-11-17,49.8,41.3,33.0,49.6,40.1,30.8,100,96,86,29.49,29.21,14,1,15,0.09
2013-11-18,32.9,27.3,24.8,30.4,22.0,18.6,92,80,74,30.27,29.49,13,2,17,0.00
2013-11-19,33.5,27.0,17.0,26.3,20.5,15.0,95,77,60,30.40,30.21,13,2,14,0.00
2013-11-20,36.0,33.1,30.7,31.4,28.1,25.6,98,82,68,30.22,30.13,12,2,14,0.00
2013-11-21,33.1,31.3,25.3,32.8,30.7,23.6,99,98,93,30.41,30.13,6,0,7,0.01
2013-11-22,28.4,23.2,14.2,23.8,18.3,10.2,94,82,60,30.53,30.40,6,1,11,0.01
2013-11-23,14.1,9.5,6.9,11.1,4.6,1.1,92,80,66,30.75,30.47,8,1,11,0.00
2013-11-24,21.2,12.6,2.2,13.5,6.2,-0.4,91,76,63,30.72,30.07,8,2,12,0.00
2013-11-25,31.4,27.6,21.3,26.7,22.4,13.4,85,81,71,30.07,29.90,8,1,8,0.00
2013-11-26,29.9,16.4,6.4,26.1,11.2,3.8,91,80,62,30.28,29.96,8,1,11,0.00
2013-11-27,23.0,15.8,7.4,14.8,10.6,5.2,93,80,57,30.36,30.25,8,0,9,0.00
2013-11-28,22.8,16.1,5.2,18.1,13.2,2.5,93,88,75,30.56,30.21,5,0,5,0.00
2013-11-29,23.0,17.2,3.3,19.1,14.1,0.7,95,88,79,30.67,30.36,11,1,11,0.00
2013-11-30,33.3,28.0,23.0,26.9,23.5,18.1,89,83,75,30.36,30.08,5,0,6,0.00
2013-12-1,30.9,28.6,27.4,26.7,24.5,22.3,94,85,71,30.21,30.03,2,0,4,0.00
2013-12-2,31.5,28.9,26.9,27.0,24.5,22.8,92,83,76,30.03,29.86,14,2,15,0.00
2013-12-3,29.4,25.9,22.3,27.9,24.5,20.6,97,94,91,29.96,29.84,14,3,16,0.00
2013-12-4,31.4,25.8,22.7,30.8,24.8,21.1,98,96,94,29.95,29.56,16,3,19,0.00
2013-12-5,29.3,12.0,2.4,28.3,8.9,-0.6,96,87,81,30.23,29.48,7,1,11,0.00
2013-12-6,6.5,0.4,-5.6,99.9,45.5,-3.6,88,85,79,30.60,30.23,5,0,9,0.00
2013-12-7,3.7,-3.7,-10.3,99.9,73.7,-5.0,87,83,77,30.74,30.59,4,0,5,0.00
2013-12-8,8.6,0.9,-8.8,99.9,46.0,-3.1,91,87,84,30.68,30.13,9,1,11,0.00
2013-12-9,9.5,2.9,-8.0,99.9,35.6,-4.3,91,85,78,30.13,29.91,6,0,8,0.00
2013-12-10,6.0,-0.5,-8.9,99.9,51.7,-3.6,87,84,78,30.26,29.93,6,0,7,0.00
2013-12-11,0.2,-5.4,-9.4,99.9,98.8,-6.0,87,82,74,30.53,30.26,5,0,6,0.00
2013-12-12,8.9,1.8,-8.9,99.9,44.7,-3.8,88,83,78,30.47,30.23,6,0,6,0.00
2013-12-13,8.3,4.7,0.7,5.4,0.7,-2.7,89,82,73,30.47,30.26,6,0,7,0.00
2013-12-14,14.2,9.2,1.6,11.3,6.2,-1.7,95,87,83,30.46,29.97,7,1,10,0.00
2013-12-15,12.6,1.5,-11.6,99.9,33.1,-4.5,95,82,71,30.22,29.96,7,0,8,0.00
2013-12-16,11.3,0.0,-15.8,99.9,43.5,-2.1,91,85,75,30.25,30.01,10,0,10,0.00
2013-12-17,23.2,15.2,7.7,21.1,13.3,5.7,95,92,88,30.01,29.89,4,0,5,0.00
2013-12-23,-3.0,-3.9,-4.8,99.9,99.9,99.9,87,86,86,30.50,30.48,0,0,0,0.00
2013-12-24,14.1,2.9,-7.2,99.9,54.0,-1.9,99,82,73,30.58,30.36,8,1,9,0.00
2013-12-26,11.7,9.4,6.7,7.7,6.3,4.2,92,87,82,30.29,30.21,2,0,2,0.00
2013-12-27,28.9,20.8,9.4,27.4,19.2,7.4,95,93,90,30.29,29.93,5,1,5,0.00
2013-12-28,33.2,29.1,22.5,31.8,28.0,20.5,98,96,93,30.01,29.77,6,0,10,0.00
2013-12-29,22.2,4.4,-13.2,99.9,33.8,-4.1,94,84,73,30.27,29.84,9,1,12,0.00
2013-12-30,-3.0,-10.2,-20.1,99.9,83.4,-99.9,86,79,69,30.39,30.26,2,0,3,0.00
2013-12-31,-1.8,-10.0,-15.9,99.9,94.4,-50.3,86,80,70,30.54,30.25,6,0,6,0.00
2014-1-1,2.9,-6.6,-16.0,-999.9,-999.9,-999.9,87,81,71,30.64,30.53,6,0,8,0.00
2014-1-2,5.2,-4.8,-14.7,-999.9,-999.9,-999.9,88,80,68,30.55,30.50,6,0,8,0.00